sensor_id;sensor_type;location;lat;lon;timestamp;P1;durP1;ratioP1;P2;durP2;ratioP2
38843;SDS011;24596;48.080;8.362;2024-03-17T00:02:21;4.85;;;2.03;;
38843;SDS011;24596;48.080;8.362;2024-03-17T00:04:46;4.70;;;2.03;;
38843;SDS011;24596;48.080;8.362;2024-03-17T00:07:12;5.47;;;1.80;;
38843;SDS011;24596;48.080;8.362;2024-03-17T00:09:37;5.32;;;2.35;;
38843;SDS011;24596;48.080;8.362;2024-03-17T00:12:03;4.40;;;2.10;;
38843;SDS011;24596;48.080;8.362;2024-03-17T00:14:32;5.10;;;2.00;;
38843;SDS011;24596;48.080;8.362;2024-03-17T00:16:57;3.95;;;1.75;;
38843;SDS011;24596;48.080;8.362;2024-03-17T00:19:23;4.78;;;1.80;;
38843;SDS011;24596;48.080;8.362;2024-03-17T00:21:48;4.90;;;1.77;;
38843;SDS011;24596;48.080;8.362;2024-03-17T00:24:15;10.30;;;3.60;;
38843;SDS011;24596;48.080;8.362;2024-03-17T00:26:40;5.55;;;2.35;;
38843;SDS011;24596;48.080;8.362;2024-03-17T00:29:06;5.40;;;2.25;;
38843;SDS011;24596;48.080;8.362;2024-03-17T00:31:31;5.38;;;2.08;;
38843;SDS011;24596;48.080;8.362;2024-03-17T00:33:56;4.50;;;1.92;;
38843;SDS011;24596;48.080;8.362;2024-03-17T00:36:22;4.32;;;2.20;;
38843;SDS011;24596;48.080;8.362;2024-03-17T00:38:47;9.35;;;3.75;;
38843;SDS011;24596;48.080;8.362;2024-03-17T00:41:12;3.75;;;1.75;;
38843;SDS011;24596;48.080;8.362;2024-03-17T00:43:37;8.35;;;2.20;;
38843;SDS011;24596;48.080;8.362;2024-03-17T00:46:03;5.78;;;2.10;;
38843;SDS011;24596;48.080;8.362;2024-03-17T00:48:28;5.97;;;2.45;;
38843;SDS011;24596;48.080;8.362;2024-03-17T00:50:57;4.65;;;2.13;;
38843;SDS011;24596;48.080;8.362;2024-03-17T00:53:22;4.07;;;2.20;;
38843;SDS011;24596;48.080;8.362;2024-03-17T00:55:51;4.90;;;2.58;;
38843;SDS011;24596;48.080;8.362;2024-03-17T00:58:16;5.65;;;2.38;;
38843;SDS011;24596;48.080;8.362;2024-03-17T01:00:41;5.82;;;1.90;;
38843;SDS011;24596;48.080;8.362;2024-03-17T01:03:06;4.45;;;2.35;;
38843;SDS011;24596;48.080;8.362;2024-03-17T01:05:32;6.50;;;2.55;;
38843;SDS011;24596;48.080;8.362;2024-03-17T01:07:57;5.10;;;2.25;;
38843;SDS011;24596;48.080;8.362;2024-03-17T01:10:22;4.28;;;2.13;;
38843;SDS011;24596;48.080;8.362;2024-03-17T01:12:47;3.67;;;1.85;;
38843;SDS011;24596;48.080;8.362;2024-03-17T01:15:12;4.30;;;2.10;;
38843;SDS011;24596;48.080;8.362;2024-03-17T01:17:38;7.22;;;3.10;;
38843;SDS011;24596;48.080;8.362;2024-03-17T01:20:03;5.80;;;3.10;;
38843;SDS011;24596;48.080;8.362;2024-03-17T01:22:28;5.28;;;3.28;;
38843;SDS011;24596;48.080;8.362;2024-03-17T01:24:53;5.15;;;3.15;;
38843;SDS011;24596;48.080;8.362;2024-03-17T01:27:19;5.13;;;2.65;;
38843;SDS011;24596;48.080;8.362;2024-03-17T01:29:44;6.20;;;2.50;;
38843;SDS011;24596;48.080;8.362;2024-03-17T01:32:09;3.28;;;1.85;;
38843;SDS011;24596;48.080;8.362;2024-03-17T01:34:36;3.47;;;1.70;;
38843;SDS011;24596;48.080;8.362;2024-03-17T01:37:01;3.83;;;1.80;;
38843;SDS011;24596;48.080;8.362;2024-03-17T01:39:26;3.55;;;1.70;;
38843;SDS011;24596;48.080;8.362;2024-03-17T01:41:51;4.22;;;2.25;;
38843;SDS011;24596;48.080;8.362;2024-03-17T01:44:21;4.50;;;2.10;;
38843;SDS011;24596;48.080;8.362;2024-03-17T01:46:46;4.53;;;2.00;;
38843;SDS011;24596;48.080;8.362;2024-03-17T01:49:12;4.40;;;1.50;;
38843;SDS011;24596;48.080;8.362;2024-03-17T01:51:37;3.70;;;1.63;;
38843;SDS011;24596;48.080;8.362;2024-03-17T01:54:02;3.65;;;1.77;;
38843;SDS011;24596;48.080;8.362;2024-03-17T01:56:28;5.20;;;2.35;;
38843;SDS011;24596;48.080;8.362;2024-03-17T01:58:53;8.65;;;3.53;;
38843;SDS011;24596;48.080;8.362;2024-03-17T02:01:19;5.10;;;2.90;;
38843;SDS011;24596;48.080;8.362;2024-03-17T02:03:45;4.93;;;2.45;;
38843;SDS011;24596;48.080;8.362;2024-03-17T02:06:10;4.82;;;2.35;;
38843;SDS011;24596;48.080;8.362;2024-03-17T02:08:51;3.92;;;2.00;;
38843;SDS011;24596;48.080;8.362;2024-03-17T02:11:24;4.30;;;1.95;;
38843;SDS011;24596;48.080;8.362;2024-03-17T02:13:49;4.18;;;1.90;;
38843;SDS011;24596;48.080;8.362;2024-03-17T02:16:15;3.95;;;1.80;;
38843;SDS011;24596;48.080;8.362;2024-03-17T02:18:40;4.53;;;1.90;;
38843;SDS011;24596;48.080;8.362;2024-03-17T02:21:05;5.07;;;1.90;;
38843;SDS011;24596;48.080;8.362;2024-03-17T02:23:33;3.30;;;1.75;;
38843;SDS011;24596;48.080;8.362;2024-03-17T02:25:58;4.55;;;2.58;;
38843;SDS011;24596;48.080;8.362;2024-03-17T02:28:23;6.97;;;2.85;;
38843;SDS011;24596;48.080;8.362;2024-03-17T02:30:48;5.63;;;2.13;;
38843;SDS011;24596;48.080;8.362;2024-03-17T02:33:14;4.03;;;1.85;;
38843;SDS011;24596;48.080;8.362;2024-03-17T02:35:39;3.17;;;1.48;;
38843;SDS011;24596;48.080;8.362;2024-03-17T02:38:05;5.68;;;1.73;;
38843;SDS011;24596;48.080;8.362;2024-03-17T02:40:30;3.63;;;1.60;;
38843;SDS011;24596;48.080;8.362;2024-03-17T02:42:56;2.72;;;1.60;;
38843;SDS011;24596;48.080;8.362;2024-03-17T02:45:21;3.95;;;1.85;;
38843;SDS011;24596;48.080;8.362;2024-03-17T02:47:46;4.55;;;2.20;;
38843;SDS011;24596;48.080;8.362;2024-03-17T02:50:12;4.10;;;2.28;;
38843;SDS011;24596;48.080;8.362;2024-03-17T02:52:37;4.25;;;2.10;;
38843;SDS011;24596;48.080;8.362;2024-03-17T02:55:02;4.15;;;1.85;;
38843;SDS011;24596;48.080;8.362;2024-03-17T02:57:28;3.60;;;1.90;;
38843;SDS011;24596;48.080;8.362;2024-03-17T02:59:54;3.75;;;1.90;;
38843;SDS011;24596;48.080;8.362;2024-03-17T03:02:20;6.93;;;3.17;;
38843;SDS011;24596;48.080;8.362;2024-03-17T03:04:45;3.50;;;1.85;;
38843;SDS011;24596;48.080;8.362;2024-03-17T03:07:10;4.72;;;1.98;;
38843;SDS011;24596;48.080;8.362;2024-03-17T03:09:36;6.43;;;2.22;;
38843;SDS011;24596;48.080;8.362;2024-03-17T03:12:01;3.97;;;2.05;;
38843;SDS011;24596;48.080;8.362;2024-03-17T03:14:29;5.72;;;1.95;;
38843;SDS011;24596;48.080;8.362;2024-03-17T03:16:54;4.65;;;1.95;;
38843;SDS011;24596;48.080;8.362;2024-03-17T03:19:20;3.88;;;2.00;;
38843;SDS011;24596;48.080;8.362;2024-03-17T03:21:45;4.97;;;2.30;;
38843;SDS011;24596;48.080;8.362;2024-03-17T03:24:11;5.72;;;2.00;;
38843;SDS011;24596;48.080;8.362;2024-03-17T03:26:37;4.82;;;2.35;;
38843;SDS011;24596;48.080;8.362;2024-03-17T03:29:03;8.57;;;2.58;;
38843;SDS011;24596;48.080;8.362;2024-03-17T03:31:31;6.45;;;2.28;;
38843;SDS011;24596;48.080;8.362;2024-03-17T03:33:57;4.93;;;2.17;;
38843;SDS011;24596;48.080;8.362;2024-03-17T03:36:22;4.90;;;2.17;;
38843;SDS011;24596;48.080;8.362;2024-03-17T03:38:47;5.78;;;2.38;;
38843;SDS011;24596;48.080;8.362;2024-03-17T03:41:14;4.78;;;2.20;;
38843;SDS011;24596;48.080;8.362;2024-03-17T03:43:39;4.57;;;2.08;;
38843;SDS011;24596;48.080;8.362;2024-03-17T03:46:04;5.18;;;2.13;;
38843;SDS011;24596;48.080;8.362;2024-03-17T03:48:30;4.28;;;2.30;;
38843;SDS011;24596;48.080;8.362;2024-03-17T03:50:56;3.92;;;2.00;;
38843;SDS011;24596;48.080;8.362;2024-03-17T03:53:21;4.10;;;1.98;;
38843;SDS011;24596;48.080;8.362;2024-03-17T03:55:47;3.88;;;2.15;;
38843;SDS011;24596;48.080;8.362;2024-03-17T03:58:13;4.07;;;1.92;;
38843;SDS011;24596;48.080;8.362;2024-03-17T04:00:39;5.20;;;2.20;;
38843;SDS011;24596;48.080;8.362;2024-03-17T04:03:04;4.32;;;1.80;;
38843;SDS011;24596;48.080;8.362;2024-03-17T04:05:30;3.97;;;1.90;;
38843;SDS011;24596;48.080;8.362;2024-03-17T04:07:55;3.65;;;1.80;;
38843;SDS011;24596;48.080;8.362;2024-03-17T04:10:20;5.18;;;1.83;;
38843;SDS011;24596;48.080;8.362;2024-03-17T04:12:46;3.80;;;1.77;;
38843;SDS011;24596;48.080;8.362;2024-03-17T04:15:11;3.92;;;1.90;;
38843;SDS011;24596;48.080;8.362;2024-03-17T04:17:37;5.13;;;1.80;;
38843;SDS011;24596;48.080;8.362;2024-03-17T04:20:02;7.18;;;1.75;;
38843;SDS011;24596;48.080;8.362;2024-03-17T04:22:28;5.60;;;1.80;;
38843;SDS011;24596;48.080;8.362;2024-03-17T04:24:54;6.65;;;1.95;;
38843;SDS011;24596;48.080;8.362;2024-03-17T04:27:23;4.95;;;2.00;;
38843;SDS011;24596;48.080;8.362;2024-03-17T04:29:52;5.50;;;2.25;;
38843;SDS011;24596;48.080;8.362;2024-03-17T04:32:17;4.00;;;1.90;;
38843;SDS011;24596;48.080;8.362;2024-03-17T04:34:42;6.53;;;2.63;;
38843;SDS011;24596;48.080;8.362;2024-03-17T04:37:08;3.70;;;1.98;;
38843;SDS011;24596;48.080;8.362;2024-03-17T04:39:36;4.80;;;2.05;;
38843;SDS011;24596;48.080;8.362;2024-03-17T04:42:03;3.85;;;1.75;;
38843;SDS011;24596;48.080;8.362;2024-03-17T04:44:29;6.43;;;1.80;;
38843;SDS011;24596;48.080;8.362;2024-03-17T04:46:54;4.45;;;1.95;;
38843;SDS011;24596;48.080;8.362;2024-03-17T04:49:19;5.03;;;1.80;;
38843;SDS011;24596;48.080;8.362;2024-03-17T04:51:44;4.97;;;2.70;;
38843;SDS011;24596;48.080;8.362;2024-03-17T04:54:10;4.35;;;1.95;;
38843;SDS011;24596;48.080;8.362;2024-03-17T04:56:35;3.85;;;1.77;;
38843;SDS011;24596;48.080;8.362;2024-03-17T04:59:00;6.40;;;1.65;;
38843;SDS011;24596;48.080;8.362;2024-03-17T05:01:25;3.83;;;1.52;;
38843;SDS011;24596;48.080;8.362;2024-03-17T05:03:51;5.20;;;2.00;;
38843;SDS011;24596;48.080;8.362;2024-03-17T05:06:16;7.00;;;2.22;;
38843;SDS011;24596;48.080;8.362;2024-03-17T05:08:41;4.63;;;2.03;;
38843;SDS011;24596;48.080;8.362;2024-03-17T05:11:07;4.75;;;2.17;;
38843;SDS011;24596;48.080;8.362;2024-03-17T05:13:32;3.88;;;1.63;;
38843;SDS011;24596;48.080;8.362;2024-03-17T05:15:59;3.25;;;1.60;;
38843;SDS011;24596;48.080;8.362;2024-03-17T05:18:24;5.47;;;2.00;;
38843;SDS011;24596;48.080;8.362;2024-03-17T05:20:57;4.43;;;1.73;;
38843;SDS011;24596;48.080;8.362;2024-03-17T05:23:24;6.97;;;2.20;;
38843;SDS011;24596;48.080;8.362;2024-03-17T05:25:52;26.63;;;2.10;;
38843;SDS011;24596;48.080;8.362;2024-03-17T05:28:17;7.53;;;2.00;;
38843;SDS011;24596;48.080;8.362;2024-03-17T05:30:43;4.43;;;1.60;;
38843;SDS011;24596;48.080;8.362;2024-03-17T05:33:08;3.80;;;1.60;;
38843;SDS011;24596;48.080;8.362;2024-03-17T05:35:33;5.93;;;1.95;;
38843;SDS011;24596;48.080;8.362;2024-03-17T05:37:58;4.68;;;1.73;;
38843;SDS011;24596;48.080;8.362;2024-03-17T05:40:23;7.10;;;1.73;;
38843;SDS011;24596;48.080;8.362;2024-03-17T05:42:49;4.25;;;1.40;;
38843;SDS011;24596;48.080;8.362;2024-03-17T05:45:15;14.00;;;2.67;;
38843;SDS011;24596;48.080;8.362;2024-03-17T05:47:41;5.15;;;2.05;;
38843;SDS011;24596;48.080;8.362;2024-03-17T05:50:06;6.13;;;1.75;;
38843;SDS011;24596;48.080;8.362;2024-03-17T05:52:32;7.57;;;1.90;;
38843;SDS011;24596;48.080;8.362;2024-03-17T05:54:57;7.07;;;1.58;;
38843;SDS011;24596;48.080;8.362;2024-03-17T05:57:22;7.78;;;2.08;;
38843;SDS011;24596;48.080;8.362;2024-03-17T05:59:49;4.80;;;1.70;;
38843;SDS011;24596;48.080;8.362;2024-03-17T06:02:14;8.50;;;1.60;;
38843;SDS011;24596;48.080;8.362;2024-03-17T06:04:40;3.80;;;1.45;;
38843;SDS011;24596;48.080;8.362;2024-03-17T06:07:06;4.63;;;1.77;;
38843;SDS011;24596;48.080;8.362;2024-03-17T06:09:31;11.65;;;2.10;;
38843;SDS011;24596;48.080;8.362;2024-03-17T06:11:56;7.22;;;1.85;;
38843;SDS011;24596;48.080;8.362;2024-03-17T06:14:22;4.25;;;1.98;;
38843;SDS011;24596;48.080;8.362;2024-03-17T06:16:47;4.10;;;1.92;;
38843;SDS011;24596;48.080;8.362;2024-03-17T06:19:12;6.00;;;2.15;;
38843;SDS011;24596;48.080;8.362;2024-03-17T06:21:37;5.28;;;2.25;;
38843;SDS011;24596;48.080;8.362;2024-03-17T06:24:03;4.93;;;1.80;;
38843;SDS011;24596;48.080;8.362;2024-03-17T06:26:29;6.30;;;1.88;;
38843;SDS011;24596;48.080;8.362;2024-03-17T06:28:58;4.72;;;2.00;;
38843;SDS011;24596;48.080;8.362;2024-03-17T06:31:23;9.68;;;3.10;;
38843;SDS011;24596;48.080;8.362;2024-03-17T06:33:48;5.40;;;1.90;;
38843;SDS011;24596;48.080;8.362;2024-03-17T06:36:14;4.80;;;1.92;;
38843;SDS011;24596;48.080;8.362;2024-03-17T06:38:39;10.27;;;2.85;;
38843;SDS011;24596;48.080;8.362;2024-03-17T06:41:04;15.63;;;6.88;;
38843;SDS011;24596;48.080;8.362;2024-03-17T06:43:29;15.80;;;5.80;;
38843;SDS011;24596;48.080;8.362;2024-03-17T06:48:20;10.57;;;4.80;;
38843;SDS011;24596;48.080;8.362;2024-03-17T06:50:46;9.07;;;4.32;;
38843;SDS011;24596;48.080;8.362;2024-03-17T06:53:11;8.43;;;3.95;;
38843;SDS011;24596;48.080;8.362;2024-03-17T06:55:36;12.45;;;3.85;;
38843;SDS011;24596;48.080;8.362;2024-03-17T06:58:02;6.53;;;2.60;;
38843;SDS011;24596;48.080;8.362;2024-03-17T07:00:28;6.07;;;2.17;;
38843;SDS011;24596;48.080;8.362;2024-03-17T07:02:53;4.40;;;1.65;;
38843;SDS011;24596;48.080;8.362;2024-03-17T07:05:19;5.20;;;1.60;;
38843;SDS011;24596;48.080;8.362;2024-03-17T07:07:44;4.22;;;1.40;;
38843;SDS011;24596;48.080;8.362;2024-03-17T07:10:10;4.25;;;2.00;;
38843;SDS011;24596;48.080;8.362;2024-03-17T07:12:39;7.20;;;2.47;;
38843;SDS011;24596;48.080;8.362;2024-03-17T07:15:04;6.25;;;2.50;;
38843;SDS011;24596;48.080;8.362;2024-03-17T07:17:30;4.85;;;2.20;;
38843;SDS011;24596;48.080;8.362;2024-03-17T07:19:55;5.18;;;2.38;;
38843;SDS011;24596;48.080;8.362;2024-03-17T07:22:20;4.53;;;1.88;;
38843;SDS011;24596;48.080;8.362;2024-03-17T07:24:47;7.57;;;2.33;;
38843;SDS011;24596;48.080;8.362;2024-03-17T07:27:12;6.05;;;2.40;;
38843;SDS011;24596;48.080;8.362;2024-03-17T07:29:39;4.90;;;1.95;;
38843;SDS011;24596;48.080;8.362;2024-03-17T07:32:05;3.65;;;1.55;;
38843;SDS011;24596;48.080;8.362;2024-03-17T07:34:30;4.63;;;1.90;;
38843;SDS011;24596;48.080;8.362;2024-03-17T07:36:56;5.03;;;1.58;;
38843;SDS011;24596;48.080;8.362;2024-03-17T07:39:21;4.35;;;1.60;;
38843;SDS011;24596;48.080;8.362;2024-03-17T07:41:47;5.15;;;1.80;;
38843;SDS011;24596;48.080;8.362;2024-03-17T07:44:12;9.57;;;1.83;;
38843;SDS011;24596;48.080;8.362;2024-03-17T07:46:37;4.88;;;1.70;;
38843;SDS011;24596;48.080;8.362;2024-03-17T07:49:02;6.38;;;2.25;;
38843;SDS011;24596;48.080;8.362;2024-03-17T07:51:28;8.07;;;1.98;;
38843;SDS011;24596;48.080;8.362;2024-03-17T07:53:53;5.22;;;1.88;;
38843;SDS011;24596;48.080;8.362;2024-03-17T07:56:18;6.05;;;1.90;;
38843;SDS011;24596;48.080;8.362;2024-03-17T07:58:44;3.33;;;1.63;;
38843;SDS011;24596;48.080;8.362;2024-03-17T08:01:10;3.97;;;1.60;;
38843;SDS011;24596;48.080;8.362;2024-03-17T08:03:36;12.20;;;2.00;;
38843;SDS011;24596;48.080;8.362;2024-03-17T08:06:03;5.00;;;1.92;;
38843;SDS011;24596;48.080;8.362;2024-03-17T08:08:28;8.75;;;3.03;;
38843;SDS011;24596;48.080;8.362;2024-03-17T08:10:53;7.38;;;4.25;;
38843;SDS011;24596;48.080;8.362;2024-03-17T08:13:19;6.05;;;3.03;;
38843;SDS011;24596;48.080;8.362;2024-03-17T08:15:45;6.57;;;2.22;;
38843;SDS011;24596;48.080;8.362;2024-03-17T08:18:13;6.28;;;1.92;;
38843;SDS011;24596;48.080;8.362;2024-03-17T08:20:39;7.05;;;2.28;;
38843;SDS011;24596;48.080;8.362;2024-03-17T08:23:11;5.88;;;1.92;;
38843;SDS011;24596;48.080;8.362;2024-03-17T08:25:37;7.32;;;2.20;;
38843;SDS011;24596;48.080;8.362;2024-03-17T08:28:02;7.22;;;2.33;;
38843;SDS011;24596;48.080;8.362;2024-03-17T08:30:27;6.20;;;2.20;;
38843;SDS011;24596;48.080;8.362;2024-03-17T08:32:53;6.63;;;2.08;;
38843;SDS011;24596;48.080;8.362;2024-03-17T08:35:18;4.72;;;1.35;;
38843;SDS011;24596;48.080;8.362;2024-03-17T08:37:43;5.95;;;1.75;;
38843;SDS011;24596;48.080;8.362;2024-03-17T08:40:10;10.32;;;1.67;;
38843;SDS011;24596;48.080;8.362;2024-03-17T08:42:36;4.30;;;1.02;;
38843;SDS011;24596;48.080;8.362;2024-03-17T08:45:01;7.43;;;1.55;;
38843;SDS011;24596;48.080;8.362;2024-03-17T08:47:27;6.13;;;1.27;;
38843;SDS011;24596;48.080;8.362;2024-03-17T08:49:53;6.22;;;1.15;;
38843;SDS011;24596;48.080;8.362;2024-03-17T08:52:18;4.65;;;1.38;;
38843;SDS011;24596;48.080;8.362;2024-03-17T08:54:49;4.22;;;1.33;;
38843;SDS011;24596;48.080;8.362;2024-03-17T08:57:17;8.25;;;1.35;;
38843;SDS011;24596;48.080;8.362;2024-03-17T08:59:45;8.52;;;1.10;;
38843;SDS011;24596;48.080;8.362;2024-03-17T09:02:11;8.30;;;1.27;;
38843;SDS011;24596;48.080;8.362;2024-03-17T09:04:37;7.78;;;1.55;;
38843;SDS011;24596;48.080;8.362;2024-03-17T09:07:03;7.95;;;1.88;;
38843;SDS011;24596;48.080;8.362;2024-03-17T09:09:29;10.98;;;1.85;;
38843;SDS011;24596;48.080;8.362;2024-03-17T09:11:54;8.43;;;1.52;;
38843;SDS011;24596;48.080;8.362;2024-03-17T09:14:19;7.57;;;1.85;;
38843;SDS011;24596;48.080;8.362;2024-03-17T09:16:46;6.68;;;1.20;;
38843;SDS011;24596;48.080;8.362;2024-03-17T09:19:12;7.55;;;1.17;;
38843;SDS011;24596;48.080;8.362;2024-03-17T09:21:37;4.75;;;1.05;;
38843;SDS011;24596;48.080;8.362;2024-03-17T09:24:04;8.77;;;1.63;;
38843;SDS011;24596;48.080;8.362;2024-03-17T09:26:30;10.35;;;1.65;;
38843;SDS011;24596;48.080;8.362;2024-03-17T09:28:55;8.00;;;2.25;;
38843;SDS011;24596;48.080;8.362;2024-03-17T09:31:20;8.30;;;1.80;;
38843;SDS011;24596;48.080;8.362;2024-03-17T09:33:46;10.55;;;1.52;;
38843;SDS011;24596;48.080;8.362;2024-03-17T09:36:11;5.78;;;1.25;;
38843;SDS011;24596;48.080;8.362;2024-03-17T09:38:38;7.57;;;1.48;;
38843;SDS011;24596;48.080;8.362;2024-03-17T09:41:03;3.75;;;1.20;;
38843;SDS011;24596;48.080;8.362;2024-03-17T09:43:29;4.65;;;1.30;;
38843;SDS011;24596;48.080;8.362;2024-03-17T09:45:54;8.50;;;1.17;;
38843;SDS011;24596;48.080;8.362;2024-03-17T09:48:22;8.65;;;1.50;;
38843;SDS011;24596;48.080;8.362;2024-03-17T09:50:52;7.28;;;1.70;;
38843;SDS011;24596;48.080;8.362;2024-03-17T09:53:17;5.72;;;1.20;;
38843;SDS011;24596;48.080;8.362;2024-03-17T09:55:47;5.90;;;1.20;;
38843;SDS011;24596;48.080;8.362;2024-03-17T09:58:15;7.03;;;1.17;;
38843;SDS011;24596;48.080;8.362;2024-03-17T10:00:40;5.82;;;1.25;;
38843;SDS011;24596;48.080;8.362;2024-03-17T10:03:05;6.97;;;1.20;;
38843;SDS011;24596;48.080;8.362;2024-03-17T10:05:31;5.22;;;1.17;;
38843;SDS011;24596;48.080;8.362;2024-03-17T10:07:56;11.43;;;2.25;;
38843;SDS011;24596;48.080;8.362;2024-03-17T10:10:21;7.78;;;1.35;;
38843;SDS011;24596;48.080;8.362;2024-03-17T10:12:50;8.65;;;1.20;;
38843;SDS011;24596;48.080;8.362;2024-03-17T10:15:16;7.68;;;1.10;;
38843;SDS011;24596;48.080;8.362;2024-03-17T10:17:41;7.47;;;1.30;;
38843;SDS011;24596;48.080;8.362;2024-03-17T10:20:16;7.40;;;1.42;;
38843;SDS011;24596;48.080;8.362;2024-03-17T10:25:24;7.70;;;1.40;;
38843;SDS011;24596;48.080;8.362;2024-03-17T10:27:49;6.93;;;1.30;;
38843;SDS011;24596;48.080;8.362;2024-03-17T10:30:18;6.45;;;1.27;;
38843;SDS011;24596;48.080;8.362;2024-03-17T10:32:44;8.57;;;1.20;;
38843;SDS011;24596;48.080;8.362;2024-03-17T10:35:24;5.43;;;1.20;;
38843;SDS011;24596;48.080;8.362;2024-03-17T10:37:54;8.88;;;1.75;;
38843;SDS011;24596;48.080;8.362;2024-03-17T10:40:19;8.98;;;1.25;;
38843;SDS011;24596;48.080;8.362;2024-03-17T10:42:44;9.45;;;1.77;;
38843;SDS011;24596;48.080;8.362;2024-03-17T10:45:09;8.10;;;2.10;;
38843;SDS011;24596;48.080;8.362;2024-03-17T10:47:36;5.32;;;1.20;;
38843;SDS011;24596;48.080;8.362;2024-03-17T10:50:02;8.63;;;1.40;;
38843;SDS011;24596;48.080;8.362;2024-03-17T10:52:29;7.95;;;1.40;;
38843;SDS011;24596;48.080;8.362;2024-03-17T10:54:57;6.30;;;1.63;;
38843;SDS011;24596;48.080;8.362;2024-03-17T11:00:08;9.35;;;1.60;;
38843;SDS011;24596;48.080;8.362;2024-03-17T11:02:34;4.35;;;1.10;;
38843;SDS011;24596;48.080;8.362;2024-03-17T11:05:01;7.80;;;1.27;;
38843;SDS011;24596;48.080;8.362;2024-03-17T11:07:27;9.50;;;1.40;;
38843;SDS011;24596;48.080;8.362;2024-03-17T11:09:54;5.22;;;1.23;;
38843;SDS011;24596;48.080;8.362;2024-03-17T11:17:47;9.70;;;1.48;;
38843;SDS011;24596;48.080;8.362;2024-03-17T11:20:14;4.47;;;1.27;;
38843;SDS011;24596;48.080;8.362;2024-03-17T11:22:43;5.05;;;1.25;;
38843;SDS011;24596;48.080;8.362;2024-03-17T11:25:36;6.45;;;1.08;;
38843;SDS011;24596;48.080;8.362;2024-03-17T11:27:59;4.75;;;1.20;;
38843;SDS011;24596;48.080;8.362;2024-03-17T11:30:41;5.88;;;1.55;;
38843;SDS011;24596;48.080;8.362;2024-03-17T11:38:57;5.68;;;1.67;;
38843;SDS011;24596;48.080;8.362;2024-03-17T11:46:40;5.90;;;1.20;;
38843;SDS011;24596;48.080;8.362;2024-03-17T11:49:10;7.78;;;1.25;;
38843;SDS011;24596;48.080;8.362;2024-03-17T11:51:40;5.60;;;1.23;;
38843;SDS011;24596;48.080;8.362;2024-03-17T11:54:06;5.90;;;1.30;;
38843;SDS011;24596;48.080;8.362;2024-03-17T11:56:37;6.03;;;1.08;;
38843;SDS011;24596;48.080;8.362;2024-03-17T11:59:05;6.75;;;1.17;;
38843;SDS011;24596;48.080;8.362;2024-03-17T12:01:34;8.35;;;1.52;;
38843;SDS011;24596;48.080;8.362;2024-03-17T12:03:59;6.25;;;1.20;;
38843;SDS011;24596;48.080;8.362;2024-03-17T12:06:31;7.35;;;1.35;;
38843;SDS011;24596;48.080;8.362;2024-03-17T12:09:30;7.22;;;0.90;;
38843;SDS011;24596;48.080;8.362;2024-03-17T12:11:59;6.88;;;1.17;;
38843;SDS011;24596;48.080;8.362;2024-03-17T12:14:25;6.32;;;1.00;;
38843;SDS011;24596;48.080;8.362;2024-03-17T12:16:54;7.45;;;1.30;;
38843;SDS011;24596;48.080;8.362;2024-03-17T12:19:20;6.70;;;1.00;;
38843;SDS011;24596;48.080;8.362;2024-03-17T12:21:46;8.00;;;1.25;;
38843;SDS011;24596;48.080;8.362;2024-03-17T12:24:14;6.22;;;1.30;;
38843;SDS011;24596;48.080;8.362;2024-03-17T12:26:39;7.22;;;1.30;;
38843;SDS011;24596;48.080;8.362;2024-03-17T12:29:05;5.20;;;1.15;;
38843;SDS011;24596;48.080;8.362;2024-03-17T12:31:30;7.07;;;1.42;;
38843;SDS011;24596;48.080;8.362;2024-03-17T12:33:55;11.98;;;1.88;;
38843;SDS011;24596;48.080;8.362;2024-03-17T12:36:20;8.07;;;1.17;;
38843;SDS011;24596;48.080;8.362;2024-03-17T12:38:46;7.20;;;1.20;;
38843;SDS011;24596;48.080;8.362;2024-03-17T12:41:17;8.90;;;1.27;;
38843;SDS011;24596;48.080;8.362;2024-03-17T12:43:48;5.75;;;1.05;;
38843;SDS011;24596;48.080;8.362;2024-03-17T12:46:14;4.53;;;0.95;;
38843;SDS011;24596;48.080;8.362;2024-03-17T12:48:39;6.18;;;2.30;;
38843;SDS011;24596;48.080;8.362;2024-03-17T12:51:04;7.28;;;1.58;;
38843;SDS011;24596;48.080;8.362;2024-03-17T12:53:30;5.55;;;1.65;;
38843;SDS011;24596;48.080;8.362;2024-03-17T12:55:55;7.72;;;1.20;;
38843;SDS011;24596;48.080;8.362;2024-03-17T12:58:38;6.47;;;0.90;;
38843;SDS011;24596;48.080;8.362;2024-03-17T13:01:22;10.27;;;2.15;;
38843;SDS011;24596;48.080;8.362;2024-03-17T13:03:50;6.28;;;1.05;;
38843;SDS011;24596;48.080;8.362;2024-03-17T13:06:23;3.60;;;0.82;;
38843;SDS011;24596;48.080;8.362;2024-03-17T13:08:51;4.53;;;1.55;;
38843;SDS011;24596;48.080;8.362;2024-03-17T13:11:16;11.32;;;1.90;;
38843;SDS011;24596;48.080;8.362;2024-03-17T13:13:41;8.75;;;2.13;;
38843;SDS011;24596;48.080;8.362;2024-03-17T13:16:07;3.60;;;0.88;;
38843;SDS011;24596;48.080;8.362;2024-03-17T13:18:33;3.78;;;0.93;;
38843;SDS011;24596;48.080;8.362;2024-03-17T13:20:58;6.70;;;1.15;;
38843;SDS011;24596;48.080;8.362;2024-03-17T13:23:25;6.28;;;1.00;;
38843;SDS011;24596;48.080;8.362;2024-03-17T13:25:50;8.82;;;1.95;;
38843;SDS011;24596;48.080;8.362;2024-03-17T13:28:16;5.80;;;1.00;;
38843;SDS011;24596;48.080;8.362;2024-03-17T13:30:41;6.50;;;1.50;;
38843;SDS011;24596;48.080;8.362;2024-03-17T13:33:07;4.22;;;1.00;;
38843;SDS011;24596;48.080;8.362;2024-03-17T13:35:36;5.63;;;0.90;;
38843;SDS011;24596;48.080;8.362;2024-03-17T13:38:04;6.75;;;0.90;;
38843;SDS011;24596;48.080;8.362;2024-03-17T13:40:31;8.68;;;1.25;;
38843;SDS011;24596;48.080;8.362;2024-03-17T13:42:57;6.63;;;0.95;;
38843;SDS011;24596;48.080;8.362;2024-03-17T13:45:23;7.65;;;1.02;;
38843;SDS011;24596;48.080;8.362;2024-03-17T13:47:54;4.50;;;1.48;;
38843;SDS011;24596;48.080;8.362;2024-03-17T13:50:20;4.15;;;1.27;;
38843;SDS011;24596;48.080;8.362;2024-03-17T13:52:46;5.20;;;1.27;;
38843;SDS011;24596;48.080;8.362;2024-03-17T13:55:18;4.60;;;0.85;;
38843;SDS011;24596;48.080;8.362;2024-03-17T13:57:44;4.70;;;1.02;;
38843;SDS011;24596;48.080;8.362;2024-03-17T14:00:09;5.70;;;1.50;;
38843;SDS011;24596;48.080;8.362;2024-03-17T14:02:35;8.07;;;1.05;;
38843;SDS011;24596;48.080;8.362;2024-03-17T14:05:00;6.80;;;1.35;;
38843;SDS011;24596;48.080;8.362;2024-03-17T14:07:27;6.47;;;1.00;;
38843;SDS011;24596;48.080;8.362;2024-03-17T14:09:52;4.15;;;0.70;;
38843;SDS011;24596;48.080;8.362;2024-03-17T14:12:17;8.23;;;1.25;;
38843;SDS011;24596;48.080;8.362;2024-03-17T14:14:42;4.53;;;1.10;;
38843;SDS011;24596;48.080;8.362;2024-03-17T14:17:10;7.88;;;1.42;;
38843;SDS011;24596;48.080;8.362;2024-03-17T14:19:36;5.97;;;1.10;;
38843;SDS011;24596;48.080;8.362;2024-03-17T14:22:01;5.10;;;0.90;;
38843;SDS011;24596;48.080;8.362;2024-03-17T14:24:27;6.38;;;1.17;;
38843;SDS011;24596;48.080;8.362;2024-03-17T14:26:53;7.03;;;1.05;;
38843;SDS011;24596;48.080;8.362;2024-03-17T14:29:18;6.43;;;1.40;;
38843;SDS011;24596;48.080;8.362;2024-03-17T14:31:44;8.57;;;1.40;;
38843;SDS011;24596;48.080;8.362;2024-03-17T14:34:10;4.25;;;1.08;;
38843;SDS011;24596;48.080;8.362;2024-03-17T14:36:36;5.78;;;2.13;;
38843;SDS011;24596;48.080;8.362;2024-03-17T14:39:02;6.15;;;1.40;;
38843;SDS011;24596;48.080;8.362;2024-03-17T14:41:27;6.72;;;1.55;;
38843;SDS011;24596;48.080;8.362;2024-03-17T14:43:53;3.65;;;1.02;;
38843;SDS011;24596;48.080;8.362;2024-03-17T14:46:18;7.53;;;1.60;;
38843;SDS011;24596;48.080;8.362;2024-03-17T14:48:43;11.18;;;1.55;;
38843;SDS011;24596;48.080;8.362;2024-03-17T14:51:09;4.15;;;1.05;;
38843;SDS011;24596;48.080;8.362;2024-03-17T14:53:34;4.35;;;0.88;;
38843;SDS011;24596;48.080;8.362;2024-03-17T14:56:01;3.47;;;1.00;;
38843;SDS011;24596;48.080;8.362;2024-03-17T14:58:26;3.05;;;0.90;;
38843;SDS011;24596;48.080;8.362;2024-03-17T15:00:52;5.85;;;1.00;;
38843;SDS011;24596;48.080;8.362;2024-03-17T15:03:17;4.90;;;1.20;;
38843;SDS011;24596;48.080;8.362;2024-03-17T15:05:42;5.93;;;1.10;;
38843;SDS011;24596;48.080;8.362;2024-03-17T15:08:08;4.63;;;1.00;;